createdAt,value
2019-05-09T00:12:33.543Z,4.17
2019-05-09T00:27:43.482Z,4.12
2019-05-09T00:42:49.732Z,3.86
2019-05-09T00:57:56.838Z,4.12
2019-05-09T01:13:03.800Z,4.34
2019-05-09T01:28:10.842Z,4.20
2019-05-09T01:43:17.882Z,4.47
2019-05-09T01:58:25.764Z,4.37
2019-05-09T02:13:33.907Z,4.44
2019-05-09T02:28:43.224Z,4.55
2019-05-09T02:43:51.748Z,4.84
2019-05-09T02:59:09.973Z,5.00
2019-05-09T03:14:20.002Z,5.40
2019-05-09T03:29:39.682Z,5.45
2019-05-09T03:44:47.717Z,5.80
2019-05-09T03:59:54.132Z,5.96
2019-05-09T04:15:01.989Z,6.22
2019-05-09T04:30:10.638Z,6.42
2019-05-09T04:45:25.349Z,6.78
2019-05-09T05:00:34.820Z,7.08
2019-05-09T05:15:44.875Z,7.41
2019-05-09T05:30:51.846Z,7.63
2019-05-09T05:46:07.652Z,8.02
2019-05-09T06:01:18.522Z,8.30
2019-05-09T06:16:24.969Z,8.46
2019-05-09T06:31:32.835Z,8.46
2019-05-09T06:46:43.017Z,8.64
2019-05-09T07:01:53.178Z,8.72
2019-05-09T07:17:01.760Z,8.86
2019-05-09T07:32:10.544Z,8.89
2019-05-09T07:47:17.778Z,9.56
2019-05-09T08:02:25.038Z,10.14
2019-05-09T08:17:33.681Z,10.56
2019-05-09T08:32:40.631Z,11.11
2019-05-09T08:47:48.515Z,11.62
2019-05-09T09:02:57.391Z,10.80
2019-05-09T09:18:08.552Z,10.55
2019-05-09T09:33:17.587Z,9.99
2019-05-09T09:48:25.340Z,9.61
2019-05-09T10:03:33.956Z,10.17
2019-05-09T10:18:58.847Z,10.84
2019-05-09T10:34:06.755Z,11.11
2019-05-09T10:49:14.361Z,11.97
2019-05-09T11:04:21.305Z,12.28
2019-05-09T11:19:28.764Z,12.23
2019-05-09T11:34:37.572Z,12.05
2019-05-09T11:49:48.023Z,11.98
2019-05-09T12:04:54.399Z,11.86
2019-05-09T12:20:12.271Z,11.98
2019-05-09T12:35:12.872Z,12.12
2019-05-09T12:50:21.543Z,12.06
2019-05-09T13:05:31.884Z,12.22
2019-05-09T13:20:38.949Z,12.14
2019-05-09T13:35:48.673Z,12.39
2019-05-09T13:50:57.805Z,12.45
2019-05-09T14:06:05.115Z,12.66
2019-05-09T14:21:13.234Z,12.33
2019-05-09T14:36:20.119Z,12.09
2019-05-09T14:51:28.423Z,11.90
2019-05-09T15:06:37.157Z,11.73
2019-05-09T15:21:48.453Z,12.19
2019-05-09T15:36:54.637Z,12.32
2019-05-09T15:52:07.422Z,12.39
2019-05-09T16:07:19.493Z,12.29
2019-05-09T16:22:28.384Z,12.17
2019-05-09T16:37:52.933Z,12.04
2019-05-09T16:52:44.751Z,11.95
2019-05-09T17:07:52.821Z,11.74
2019-05-09T17:23:18.323Z,11.71
2019-05-09T17:38:27.656Z,11.49
2019-05-09T17:53:35.714Z,11.43
2019-05-09T18:08:48.298Z,11.12
2019-05-09T18:23:55.698Z,11.02
2019-05-09T18:39:07.736Z,10.87
2019-05-09T18:54:15.948Z,10.79
2019-05-09T19:09:23.847Z,10.61
2019-05-09T19:24:32.206Z,10.65
2019-05-09T19:39:41.462Z,10.50
2019-05-09T19:54:48.548Z,10.49
2019-05-09T20:10:10.818Z,10.46
2019-05-09T20:25:18.864Z,10.45
2019-05-09T20:40:27.106Z,10.40
2019-05-09T20:55:34.160Z,10.40
2019-05-09T21:10:41.089Z,10.31
2019-05-09T21:25:47.984Z,10.30
2019-05-09T21:40:55.966Z,10.13
2019-05-09T21:56:04.721Z,10.21
2019-05-09T22:11:13.095Z,10.05
2019-05-09T22:26:20.285Z,10.00
2019-05-09T22:41:28.425Z,9.91
2019-05-09T22:56:36.291Z,9.92
2019-05-09T23:11:43.320Z,9.99
2019-05-09T23:26:50.133Z,9.70
2019-05-09T23:41:57.278Z,9.76
2019-05-09T23:57:22.968Z,9.68
